首页
METAR-TAF:

METAR-TAF

机场 :

Fort St. John, 不列颠哥伦比亚, 加拿大

纬度: 56-14N, 经度: 120-44W, 海拔: 695米

当前天气观测

该预报发布于59分钟前的05:00 UTC
风速6节,风向东南
温度 19°C
湿度 73%
气压 1012 hPa
能見度: 96.5公里
散云层高于15000英尺
多云层高于18000英尺
多云层高于23000英尺

METAR: CYXJ 150500Z 14006KT 60SM SCT150 BKN180 BKN230 19/14 A2987 RMK AC3AC3CI1 VIRGA SW QUAD SLP121 DENSITY ALT 3400FT

时间: 22:59 (05:59 UTC)

预报

该预报发布于5小时和19分钟前的00:40 UTC
预报有效从15日的 01点(UTC)到 15日的 13点(UTC)
风速8节,风向西转西南,有时为18节阵风
能見度: 10公里
少量云层高于6000英尺
散云层高于12000英尺
多云层高于22000英尺
从 15日的 0200点(UTC)
风速7节,风向西南
能見度: 10公里
多云层高于12000英尺
阴天层高于20000英尺

TAF: CYXJ 150040Z 1501/1513 24008G18KT P6SM FEW060 SCT120 BKN220 FM150200 22007KT P6SM BKN120 OVC200 RMK NXT FCST BY 150700Z

超过4000个机场的气象观测和天气预报(METAR&TAF报告)。

可查询的气象台以黄色和红色小点在地图上表示。

将鼠标移到小点上方,可查看气象台名称。

然后点击查看天气观测和预报。

如需切换地图:点击带黑十字的绿色按钮放大地图;点击带横线的绿色按钮缩小地图;或者点击绿色箭头查看邻近地区的地图。


METAR-TAF: